createdAt,value
2022-11-16T00:01:46.716Z,10.73
2022-11-16T00:04:13.732Z,9.98
2022-11-16T00:06:41.305Z,10.55
2022-11-16T00:09:23.503Z,10.20
2022-11-16T00:12:02.118Z,10.65
2022-11-16T00:14:33.641Z,10.88
2022-11-16T00:17:01.777Z,9.95
2022-11-16T00:19:29.673Z,10.07
2022-11-16T00:21:56.790Z,10.52
2022-11-16T00:24:24.782Z,10.70
2022-11-16T00:26:55.220Z,10.35
2022-11-16T00:29:26.138Z,10.63
2022-11-16T00:31:54.949Z,10.95
2022-11-16T00:34:23.734Z,11.20
2022-11-16T00:36:51.465Z,10.15
2022-11-16T00:39:19.333Z,11.18
2022-11-16T00:41:48.004Z,10.60
2022-11-16T00:44:15.992Z,10.93
2022-11-16T00:46:43.326Z,11.05
2022-11-16T00:49:10.948Z,10.23
2022-11-16T00:51:38.751Z,11.32
2022-11-16T00:54:09.096Z,11.15
2022-11-16T00:56:38.041Z,11.18
2022-11-16T00:59:06.553Z,10.98
2022-11-16T01:01:34.075Z,11.48
2022-11-16T01:04:01.266Z,11.60
2022-11-16T01:06:28.403Z,11.40
2022-11-16T01:08:55.662Z,11.98
2022-11-16T01:11:42.957Z,11.40
2022-11-16T01:14:10.977Z,11.45
2022-11-16T01:16:37.988Z,11.55
2022-11-16T01:19:05.819Z,11.40
2022-11-16T01:21:34.473Z,12.02
2022-11-16T01:24:01.741Z,13.23
2022-11-16T01:26:29.146Z,12.15
2022-11-16T01:28:59.050Z,12.50
2022-11-16T01:31:28.866Z,12.00
2022-11-16T01:33:55.987Z,12.55
2022-11-16T01:36:26.815Z,12.63
2022-11-16T01:38:56.655Z,11.95
2022-11-16T01:41:27.319Z,12.88
2022-11-16T01:44:27.058Z,12.05
2022-11-16T01:47:08.683Z,11.82
2022-11-16T01:49:48.617Z,11.63
2022-11-16T01:52:25.241Z,12.25
2022-11-16T01:54:55.343Z,13.10
2022-11-16T01:57:32.794Z,12.32
2022-11-16T02:00:09.613Z,12.75
2022-11-16T02:02:57.303Z,12.55
2022-11-16T02:06:25.834Z,11.80
2022-11-16T02:09:36.438Z,13.68
2022-11-16T02:12:50.956Z,13.63
2022-11-16T02:15:48.007Z,13.63
2022-11-16T02:18:50.433Z,14.00
2022-11-16T02:21:41.102Z,13.95
2022-11-16T02:24:43.719Z,13.70
2022-11-16T02:27:28.782Z,13.10
2022-11-16T02:29:57.312Z,12.73
2022-11-16T02:33:09.966Z,13.57
2022-11-16T02:35:56.173Z,12.95
2022-11-16T02:38:30.995Z,13.10
2022-11-16T02:41:16.314Z,12.38
2022-11-16T02:43:57.031Z,12.20
2022-11-16T02:46:36.750Z,11.93
2022-11-16T02:49:19.404Z,12.65
2022-11-16T02:51:48.337Z,12.45
2022-11-16T02:54:21.116Z,12.15
2022-11-16T02:57:41.738Z,11.80
2022-11-16T03:00:54.726Z,11.57
2022-11-16T03:03:38.229Z,11.55
2022-11-16T03:06:23.075Z,12.05
2022-11-16T03:09:18.670Z,11.40
2022-11-16T03:11:59.287Z,10.68
2022-11-16T03:14:54.055Z,11.45
2022-11-16T03:17:44.427Z,10.75
2022-11-16T03:20:30.933Z,10.70
2022-11-16T03:23:04.990Z,10.35
2022-11-16T03:25:45.130Z,9.93
2022-11-16T03:28:20.270Z,10.30
2022-11-16T03:30:57.778Z,10.77
2022-11-16T03:33:34.565Z,10.77
2022-11-16T03:36:36.385Z,11.45
2022-11-16T03:39:12.315Z,10.32
2022-11-16T03:41:44.241Z,9.52
2022-11-16T03:44:15.157Z,10.27
2022-11-16T03:46:45.309Z,10.13
2022-11-16T03:49:14.053Z,8.88
2022-11-16T03:51:42.730Z,9.38
2022-11-16T03:54:10.031Z,9.30
2022-11-16T03:56:39.825Z,8.98
2022-11-16T03:59:06.925Z,9.85
2022-11-16T04:01:34.955Z,9.27
2022-11-16T04:04:02.640Z,9.10
2022-11-16T04:06:48.456Z,8.30
2022-11-16T04:09:34.270Z,9.43
2022-11-16T04:12:23.255Z,7.88
2022-11-16T04:15:14.211Z,7.18
2022-11-16T04:18:00.182Z,7.15
2022-11-16T04:20:45.846Z,7.57
2022-11-16T04:23:34.840Z,6.65
2022-11-16T04:26:08.238Z,6.72
2022-11-16T04:28:37.396Z,6.82
2022-11-16T04:31:24.612Z,6.25
2022-11-16T04:34:24.501Z,6.10
2022-11-16T04:37:13.693Z,6.50
2022-11-16T04:39:42.354Z,6.15
2022-11-16T04:42:19.958Z,5.53
2022-11-16T04:45:09.827Z,5.70
2022-11-16T04:47:44.203Z,5.63
2022-11-16T04:50:12.552Z,5.93
2022-11-16T04:52:41.020Z,6.00
2022-11-16T04:55:12.226Z,5.70
2022-11-16T04:57:40.137Z,5.63
2022-11-16T05:00:09.354Z,5.72
2022-11-16T05:02:39.087Z,5.82
2022-11-16T05:05:09.317Z,5.63
2022-11-16T05:07:38.532Z,5.53
2022-11-16T05:10:13.118Z,5.07
2022-11-16T05:12:41.159Z,4.78
2022-11-16T05:15:12.154Z,4.35
2022-11-16T05:17:39.800Z,3.58
2022-11-16T05:20:31.055Z,4.00
2022-11-16T05:23:04.510Z,3.28
2022-11-16T05:25:39.614Z,3.08
2022-11-16T05:28:11.193Z,2.80
2022-11-16T05:30:45.058Z,2.42
2022-11-16T05:33:16.432Z,2.60
2022-11-16T05:35:45.408Z,2.33
2022-11-16T05:38:16.294Z,2.10
2022-11-16T05:40:47.878Z,2.20
2022-11-16T05:43:15.390Z,2.33
2022-11-16T05:45:54.394Z,2.10
2022-11-16T05:48:22.458Z,1.83
2022-11-16T05:50:49.598Z,2.30
2022-11-16T05:53:24.920Z,2.50
2022-11-16T05:55:52.526Z,2.33
2022-11-16T05:58:21.132Z,2.08
2022-11-16T06:00:51.048Z,2.20
2022-11-16T06:03:19.605Z,2.10
2022-11-16T06:05:46.759Z,1.75
2022-11-16T06:08:16.571Z,1.88
2022-11-16T06:10:43.639Z,2.05
2022-11-16T06:13:10.799Z,1.90
2022-11-16T06:15:40.525Z,2.08
2022-11-16T06:18:09.303Z,1.95
2022-11-16T06:20:39.532Z,2.13
2022-11-16T06:23:07.529Z,2.38
2022-11-16T06:25:39.656Z,2.22
2022-11-16T06:28:08.373Z,2.67
2022-11-16T06:30:40.162Z,2.40
2022-11-16T06:33:08.654Z,2.30
2022-11-16T06:35:38.161Z,2.55
2022-11-16T06:38:05.261Z,2.65
2022-11-16T06:40:33.955Z,3.50
2022-11-16T06:43:02.951Z,2.95
2022-11-16T06:45:30.162Z,3.50
2022-11-16T06:48:00.138Z,3.40
2022-11-16T06:50:30.387Z,3.50
2022-11-16T06:53:00.804Z,3.33
2022-11-16T06:55:29.390Z,3.47
2022-11-16T06:57:56.386Z,3.88
2022-11-16T07:00:23.555Z,4.20
2022-11-16T07:02:51.028Z,4.15
2022-11-16T07:05:19.753Z,3.95
2022-11-16T07:07:47.649Z,4.68
2022-11-16T07:10:14.789Z,4.63
2022-11-16T07:12:43.077Z,4.43
2022-11-16T07:15:11.175Z,5.05
2022-11-16T07:17:42.418Z,4.88
2022-11-16T07:20:12.016Z,4.93
2022-11-16T07:22:41.461Z,4.85
2022-11-16T07:25:12.702Z,4.75
2022-11-16T07:27:39.799Z,4.75
2022-11-16T07:30:07.874Z,4.82
2022-11-16T07:32:47.002Z,5.60
2022-11-16T07:35:20.701Z,5.15
2022-11-16T07:37:47.709Z,6.18
2022-11-16T07:40:16.186Z,5.57
2022-11-16T07:42:45.751Z,6.07
2022-11-16T07:45:26.595Z,6.18
2022-11-16T07:47:58.438Z,6.10
2022-11-16T07:50:48.594Z,6.13
2022-11-16T07:53:16.608Z,6.40
2022-11-16T07:55:43.823Z,6.70
2022-11-16T07:58:10.924Z,6.15
2022-11-16T08:00:39.031Z,6.10
2022-11-16T08:03:14.949Z,7.00
2022-11-16T08:05:44.473Z,10.48
2022-11-16T08:08:13.178Z,13.23
2022-11-16T08:10:41.865Z,13.57
2022-11-16T08:13:08.813Z,8.82
2022-11-16T08:15:36.866Z,7.95
2022-11-16T08:18:06.713Z,7.30
2022-11-16T08:20:34.896Z,7.00
2022-11-16T08:23:02.282Z,6.60
2022-11-16T08:25:33.286Z,5.97
2022-11-16T08:28:01.491Z,5.88
2022-11-16T08:30:29.534Z,5.65
2022-11-16T08:32:56.786Z,5.95
2022-11-16T08:35:23.789Z,5.95
2022-11-16T08:37:50.852Z,5.15
2022-11-16T08:40:18.531Z,5.10
2022-11-16T08:42:47.158Z,5.28
2022-11-16T08:45:15.347Z,4.97
2022-11-16T08:47:42.659Z,5.03
2022-11-16T08:50:10.066Z,4.60
2022-11-16T08:52:38.745Z,4.60
2022-11-16T08:55:06.689Z,4.32
2022-11-16T08:57:33.993Z,4.50
2022-11-16T09:00:07.617Z,4.10
2022-11-16T09:02:34.643Z,3.95
2022-11-16T09:05:01.734Z,3.83
2022-11-16T09:07:28.949Z,4.18
2022-11-16T09:09:55.954Z,3.95
2022-11-16T09:12:22.942Z,3.83
2022-11-16T09:14:49.983Z,3.58
2022-11-16T09:17:21.860Z,3.65
2022-11-16T09:19:50.255Z,3.00
2022-11-16T09:22:17.269Z,3.17
2022-11-16T09:24:44.188Z,3.22
2022-11-16T09:27:13.234Z,3.33
2022-11-16T09:29:40.278Z,2.88
2022-11-16T09:32:07.299Z,3.47
2022-11-16T09:34:35.340Z,2.88
2022-11-16T09:37:02.850Z,3.00
2022-11-16T09:39:32.464Z,3.17
2022-11-16T09:42:27.390Z,3.22
2022-11-16T09:45:18.839Z,2.78
2022-11-16T09:48:02.232Z,2.70
2022-11-16T09:50:43.102Z,2.53
2022-11-16T09:53:23.490Z,2.92
2022-11-16T09:55:54.582Z,2.13
2022-11-16T09:58:34.882Z,2.67
2022-11-16T10:01:18.436Z,2.25
2022-11-16T10:03:51.307Z,2.65
2022-11-16T10:06:28.804Z,2.63
2022-11-16T10:08:57.021Z,2.50
2022-11-16T10:11:52.757Z,2.63
2022-11-16T10:14:44.466Z,2.50
2022-11-16T10:18:06.097Z,2.72
2022-11-16T10:21:03.735Z,2.45
2022-11-16T10:24:16.131Z,2.30
2022-11-16T10:27:08.814Z,2.47
2022-11-16T10:30:01.637Z,2.15
2022-11-16T10:32:38.729Z,2.10
2022-11-16T10:35:32.115Z,2.17
2022-11-16T10:38:02.649Z,1.83
2022-11-16T10:40:37.590Z,2.25
2022-11-16T10:43:15.247Z,2.17
2022-11-16T10:46:14.534Z,1.55
2022-11-16T10:49:11.428Z,2.30
2022-11-16T10:51:38.518Z,1.50
2022-11-16T10:54:18.116Z,2.00
2022-11-16T10:56:59.308Z,1.90
2022-11-16T10:59:39.441Z,2.10
2022-11-16T11:02:24.771Z,1.95
2022-11-16T11:05:22.725Z,1.88
2022-11-16T11:08:03.474Z,2.55
2022-11-16T11:10:34.833Z,2.75
2022-11-16T11:13:17.523Z,1.92
2022-11-16T11:15:45.133Z,1.65
2022-11-16T11:18:30.045Z,1.88
2022-11-16T11:21:16.867Z,1.33
2022-11-16T11:24:06.191Z,2.22
2022-11-16T11:26:51.626Z,1.60
2022-11-16T11:29:33.096Z,1.27
2022-11-16T11:32:20.769Z,1.38
2022-11-16T11:34:54.809Z,1.35
2022-11-16T11:37:38.450Z,1.65
2022-11-16T11:40:22.704Z,1.40
2022-11-16T11:43:05.734Z,1.70
2022-11-16T11:45:47.942Z,1.45
2022-11-16T11:48:48.261Z,1.05
2022-11-16T11:51:25.985Z,1.60
2022-11-16T11:53:58.214Z,1.60
2022-11-16T11:56:28.598Z,1.30
2022-11-16T11:58:56.883Z,1.50
2022-11-16T12:01:48.207Z,1.75
2022-11-16T12:04:46.217Z,1.58
2022-11-16T12:07:37.659Z,0.95
2022-11-16T12:10:42.318Z,0.93
2022-11-16T12:13:30.425Z,1.10
2022-11-16T12:16:18.771Z,1.27
2022-11-16T12:19:45.114Z,1.50
2022-11-16T12:22:58.433Z,1.15
2022-11-16T12:26:05.422Z,1.50
2022-11-16T12:28:50.912Z,1.20
2022-11-16T12:32:22.801Z,1.80
2022-11-16T12:35:26.643Z,1.05
2022-11-16T12:38:46.591Z,1.65
2022-11-16T12:41:28.953Z,1.50
2022-11-16T12:44:16.383Z,1.10
2022-11-16T12:47:33.247Z,1.20
2022-11-16T12:50:29.534Z,1.38
2022-11-16T12:53:21.076Z,1.20
2022-11-16T12:56:19.578Z,1.85
2022-11-16T12:59:28.200Z,0.98
2022-11-16T13:02:17.712Z,1.17
2022-11-16T13:04:55.055Z,1.13
2022-11-16T13:07:44.538Z,1.02
2022-11-16T13:10:28.514Z,1.33
2022-11-16T13:16:01.730Z,1.60
2022-11-16T13:18:32.958Z,3.90
2022-11-16T13:21:22.077Z,2.47
2022-11-16T13:24:17.104Z,2.10
2022-11-16T13:30:09.477Z,1.65
2022-11-16T13:33:09.979Z,1.45
2022-11-16T13:35:38.863Z,1.33
2022-11-16T13:38:15.198Z,1.77
2022-11-16T13:40:43.500Z,1.45
2022-11-16T13:43:10.821Z,1.50
2022-11-16T13:45:57.016Z,0.90
2022-11-16T13:48:35.251Z,1.20
2022-11-16T13:51:18.501Z,1.10
2022-11-16T13:56:51.719Z,2.20
2022-11-16T13:59:27.965Z,1.50
2022-11-16T14:02:24.583Z,1.38
2022-11-16T14:05:03.106Z,1.50
2022-11-16T14:07:52.172Z,1.27
2022-11-16T14:10:34.504Z,1.00
2022-11-16T14:13:04.373Z,1.00
2022-11-16T14:15:37.727Z,1.20
2022-11-16T14:18:07.496Z,0.73
2022-11-16T14:20:38.299Z,0.90
2022-11-16T14:23:15.396Z,1.10
2022-11-16T14:26:17.316Z,1.63
2022-11-16T14:29:09.730Z,1.13
2022-11-16T14:32:03.841Z,1.42
2022-11-16T14:34:42.187Z,1.13
2022-11-16T14:37:30.379Z,1.08
2022-11-16T14:40:16.751Z,0.93
2022-11-16T14:43:15.453Z,1.20
2022-11-16T14:45:39.763Z,0.80
2022-11-16T14:48:19.750Z,1.02
2022-11-16T14:51:02.257Z,1.10
2022-11-16T14:53:31.713Z,1.00
2022-11-16T14:56:15.044Z,1.15
2022-11-16T14:59:00.945Z,0.70
2022-11-16T15:01:33.761Z,1.50
2022-11-16T15:04:06.249Z,1.00
2022-11-16T15:06:44.915Z,1.10
2022-11-16T15:09:36.153Z,1.20
2022-11-16T15:12:30.113Z,0.93
2022-11-16T15:15:04.439Z,1.38
2022-11-16T15:20:13.258Z,1.52
2022-11-16T15:22:45.306Z,1.42
2022-11-16T15:25:34.208Z,1.35
2022-11-16T15:28:13.352Z,1.42
2022-11-16T15:30:41.072Z,1.33
2022-11-16T15:33:15.260Z,1.20
2022-11-16T15:35:42.347Z,1.50
2022-11-16T15:38:24.843Z,1.35
2022-11-16T15:40:56.145Z,1.35
2022-11-16T15:44:01.316Z,1.45
2022-11-16T15:46:35.265Z,1.60
2022-11-16T15:49:03.142Z,1.20
2022-11-16T15:51:31.236Z,1.33
2022-11-16T15:54:54.117Z,1.45
2022-11-16T15:57:23.934Z,1.52
2022-11-16T15:59:57.189Z,1.60
2022-11-16T16:02:30.351Z,1.83
2022-11-16T16:04:57.684Z,1.95
2022-11-16T16:07:40.897Z,1.80
2022-11-16T16:10:20.053Z,1.80
2022-11-16T16:12:59.707Z,1.55
2022-11-16T16:15:31.337Z,1.48
2022-11-16T16:17:58.955Z,1.50
2022-11-16T16:20:30.949Z,1.35
2022-11-16T16:23:12.635Z,1.40
2022-11-16T16:25:39.714Z,1.30
2022-11-16T16:28:06.901Z,1.30
2022-11-16T16:30:38.415Z,1.45
2022-11-16T16:33:15.619Z,1.50
2022-11-16T16:35:42.615Z,1.63
2022-11-16T16:38:13.730Z,1.40
2022-11-16T16:40:40.703Z,1.40
2022-11-16T16:43:10.097Z,1.63
2022-11-16T16:45:41.459Z,1.80
2022-11-16T16:48:09.670Z,1.75
2022-11-16T16:50:36.935Z,1.90
2022-11-16T16:53:05.584Z,2.35
2022-11-16T16:55:37.509Z,1.70
2022-11-16T16:58:05.867Z,2.10
2022-11-16T17:00:34.728Z,1.90
2022-11-16T17:03:01.849Z,1.77
2022-11-16T17:05:32.733Z,1.83
2022-11-16T17:08:01.465Z,1.77
2022-11-16T17:10:28.689Z,1.83
2022-11-16T17:12:58.576Z,1.67
2022-11-16T17:15:25.649Z,2.00
2022-11-16T17:17:52.935Z,2.03
2022-11-16T17:20:21.969Z,2.00
2022-11-16T17:22:49.305Z,1.90
2022-11-16T17:25:16.573Z,1.80
2022-11-16T17:27:43.628Z,2.15
2022-11-16T17:30:11.687Z,1.65
2022-11-16T17:32:38.729Z,1.92
2022-11-16T17:35:05.960Z,2.00
2022-11-16T17:37:33.982Z,2.00
2022-11-16T17:40:00.993Z,1.90
2022-11-16T17:42:28.047Z,1.85
2022-11-16T17:44:55.434Z,2.08
2022-11-16T17:47:22.582Z,2.00
2022-11-16T17:49:49.594Z,1.90
2022-11-16T17:52:16.811Z,2.50
2022-11-16T17:54:44.822Z,1.95
2022-11-16T17:57:11.901Z,1.80
2022-11-16T17:59:39.977Z,2.08
2022-11-16T18:02:12.569Z,2.38
2022-11-16T18:04:39.659Z,2.42
2022-11-16T18:07:06.845Z,2.35
2022-11-16T18:09:36.962Z,2.25
2022-11-16T18:12:04.172Z,1.88
2022-11-16T18:14:31.156Z,2.17
2022-11-16T18:16:58.257Z,2.55
2022-11-16T18:19:25.337Z,1.90
2022-11-16T18:21:52.440Z,2.20
2022-11-16T18:24:19.616Z,2.30
2022-11-16T18:26:46.724Z,2.20
2022-11-16T18:29:15.900Z,2.00
2022-11-16T18:31:43.153Z,2.00
2022-11-16T18:34:15.632Z,2.40
2022-11-16T18:36:42.726Z,2.08
2022-11-16T18:39:13.029Z,2.00
2022-11-16T18:41:51.553Z,1.80
2022-11-16T18:44:23.074Z,2.28
2022-11-16T18:46:50.125Z,1.85
2022-11-16T18:49:17.176Z,1.85
2022-11-16T18:51:44.274Z,2.03
2022-11-16T18:54:11.220Z,2.00
2022-11-16T18:56:38.566Z,1.85
2022-11-16T18:59:05.616Z,2.00
2022-11-16T19:01:32.710Z,2.10
2022-11-16T19:04:00.088Z,1.98
2022-11-16T19:06:27.286Z,1.67
2022-11-16T19:08:59.278Z,1.65
2022-11-16T19:11:28.419Z,1.63
2022-11-16T19:14:03.724Z,2.05
2022-11-16T19:16:31.775Z,2.25
2022-11-16T19:18:59.313Z,1.50
2022-11-16T19:21:27.182Z,1.77
2022-11-16T19:23:56.560Z,1.60
2022-11-16T19:26:27.300Z,1.67
2022-11-16T19:28:54.526Z,1.55
2022-11-16T19:31:29.312Z,2.00
2022-11-16T19:34:02.754Z,1.70
2022-11-16T19:36:32.041Z,1.83
2022-11-16T19:38:59.582Z,1.63
2022-11-16T19:41:28.399Z,1.90
2022-11-16T19:44:00.144Z,1.92
2022-11-16T19:46:33.759Z,2.13
2022-11-16T19:49:01.417Z,1.70
2022-11-16T19:51:33.426Z,1.80
2022-11-16T19:54:02.451Z,1.60
2022-11-16T19:56:29.800Z,1.83
2022-11-16T19:58:59.006Z,1.60
2022-11-16T20:01:29.238Z,1.63
2022-11-16T20:04:00.606Z,1.60
2022-11-16T20:06:31.333Z,1.88
2022-11-16T20:09:08.432Z,1.60
2022-11-16T20:11:38.522Z,2.00
2022-11-16T20:14:08.991Z,1.48
2022-11-16T20:16:40.466Z,1.80
2022-11-16T20:19:10.624Z,1.80
2022-11-16T20:21:41.519Z,1.83
2022-11-16T20:24:13.581Z,1.75
2022-11-16T20:26:45.202Z,1.70
2022-11-16T20:29:14.269Z,1.70
2022-11-16T20:31:42.582Z,1.80
2022-11-16T20:34:16.008Z,1.92
2022-11-16T20:36:46.772Z,1.90
2022-11-16T20:39:16.863Z,1.80
2022-11-16T20:41:47.614Z,1.75
2022-11-16T20:44:19.515Z,1.95
2022-11-16T20:46:46.940Z,1.77
2022-11-16T20:49:14.074Z,1.90
2022-11-16T20:51:41.295Z,1.98
2022-11-16T20:54:08.558Z,2.08
2022-11-16T20:56:35.703Z,1.92
2022-11-16T20:59:02.772Z,2.13
2022-11-16T21:01:32.989Z,2.10
2022-11-16T21:04:04.858Z,3.00
2022-11-16T21:06:33.493Z,2.40
2022-11-16T21:09:01.392Z,2.10
2022-11-16T21:11:51.466Z,2.00
2022-11-16T21:14:20.337Z,2.25
2022-11-16T21:16:47.520Z,2.15
2022-11-16T21:19:15.809Z,2.13
2022-11-16T21:21:48.634Z,2.05
2022-11-16T21:24:15.634Z,2.10
2022-11-16T21:26:42.726Z,2.15
2022-11-16T21:29:11.754Z,2.30
2022-11-16T21:31:38.950Z,2.30
2022-11-16T21:34:07.284Z,2.45
2022-11-16T21:36:36.076Z,2.00
2022-11-16T21:39:03.376Z,2.13
2022-11-16T21:41:31.870Z,2.45
2022-11-16T21:43:58.861Z,1.88
2022-11-16T21:46:27.508Z,2.53
2022-11-16T21:48:56.444Z,2.20
2022-11-16T21:51:27.187Z,2.60
2022-11-16T21:53:55.413Z,2.10
2022-11-16T21:56:25.272Z,2.03
2022-11-16T21:58:54.208Z,2.60
2022-11-16T22:01:23.596Z,2.20
2022-11-16T22:04:11.006Z,2.25
2022-11-16T22:06:56.662Z,1.92
2022-11-16T22:09:23.754Z,1.90
2022-11-16T22:11:52.785Z,1.98
2022-11-16T22:14:19.723Z,2.17
2022-11-16T22:16:46.713Z,2.00
2022-11-16T22:19:13.577Z,1.90
2022-11-16T22:21:40.582Z,2.28
2022-11-16T22:24:08.034Z,2.10
2022-11-16T22:26:35.372Z,2.30
2022-11-16T22:29:02.409Z,2.42
2022-11-16T22:31:29.342Z,2.08
2022-11-16T22:33:56.355Z,2.30
2022-11-16T22:36:23.339Z,2.08
2022-11-16T22:38:50.586Z,2.20
2022-11-16T22:41:17.530Z,2.28
2022-11-16T22:43:44.523Z,2.22
2022-11-16T22:46:11.585Z,2.85
2022-11-16T22:48:40.023Z,2.88
2022-11-16T22:51:19.369Z,2.53
2022-11-16T22:53:46.812Z,2.78
2022-11-16T22:56:14.089Z,2.60
2022-11-16T22:58:41.258Z,2.97
2022-11-16T23:01:09.420Z,2.90
2022-11-16T23:03:38.447Z,3.05
2022-11-16T23:06:07.731Z,3.33
2022-11-16T23:08:36.774Z,2.90
2022-11-16T23:11:34.233Z,3.42
2022-11-16T23:14:20.516Z,3.00
2022-11-16T23:16:48.359Z,3.22
2022-11-16T23:19:37.276Z,3.20
2022-11-16T23:22:24.137Z,3.38
2022-11-16T23:25:09.888Z,2.90
2022-11-16T23:28:05.554Z,2.90
2022-11-16T23:30:35.250Z,3.63
2022-11-16T23:33:03.258Z,3.47
2022-11-16T23:35:30.173Z,3.35
2022-11-16T23:38:06.274Z,3.65
2022-11-16T23:40:39.553Z,3.20
2022-11-16T23:43:28.707Z,3.35
2022-11-16T23:46:01.487Z,3.13
2022-11-16T23:48:28.476Z,3.10
2022-11-16T23:50:55.474Z,3.28
2022-11-16T23:53:22.406Z,3.30
2022-11-16T23:55:49.369Z,3.35
2022-11-16T23:58:16.680Z,2.80
